sensor_id;sensor_type;location;lat;lon;timestamp;pressure;altitude;pressure_sealevel;temperature;humidity
24666;BME280;29726;53.532;-1.478;2023-06-04T00:00:36;101621.09;;;20.87;nan
24666;BME280;29726;53.532;-1.478;2023-06-04T00:03:20;101618.97;;;20.82;nan
24666;BME280;29726;53.532;-1.478;2023-06-04T00:06:04;101620.75;;;20.80;nan
24666;BME280;29726;53.532;-1.478;2023-06-04T00:08:48;101614.53;;;20.70;nan
24666;BME280;29726;53.532;-1.478;2023-06-04T00:11:32;101609.63;;;20.65;nan
24666;BME280;29726;53.532;-1.478;2023-06-04T00:14:17;101594.13;;;20.55;nan
24666;BME280;29726;53.532;-1.478;2023-06-04T00:17:01;101599.25;;;20.51;nan
24666;BME280;29726;53.532;-1.478;2023-06-04T00:19:45;101606.19;;;20.45;nan
24666;BME280;29726;53.532;-1.478;2023-06-04T00:22:29;101621.66;;;20.44;nan
24666;BME280;29726;53.532;-1.478;2023-06-04T00:25:13;101599.69;;;20.33;nan
24666;BME280;29726;53.532;-1.478;2023-06-04T00:27:57;101612.06;;;20.30;nan
24666;BME280;29726;53.532;-1.478;2023-06-04T00:30:41;101612.28;;;20.27;nan
24666;BME280;29726;53.532;-1.478;2023-06-04T00:33:25;101587.97;;;20.15;nan
24666;BME280;29726;53.532;-1.478;2023-06-04T00:38:53;101600.59;;;20.09;nan
24666;BME280;29726;53.532;-1.478;2023-06-04T00:41:37;101568.19;;;19.84;nan
24666;BME280;29726;53.532;-1.478;2023-06-04T00:44:21;101559.91;;;19.75;nan
24666;BME280;29726;53.532;-1.478;2023-06-04T00:47:09;101587.53;;;19.86;nan
24666;BME280;29726;53.532;-1.478;2023-06-04T00:49:56;101607.41;;;19.91;nan
24666;BME280;29726;53.532;-1.478;2023-06-04T00:55:24;101613.75;;;19.81;nan
24666;BME280;29726;53.532;-1.478;2023-06-04T00:58:09;101600.34;;;19.76;nan
24666;BME280;29726;53.532;-1.478;2023-06-04T01:00:54;101600.00;;;19.68;nan
24666;BME280;29726;53.532;-1.478;2023-06-04T01:03:42;101593.81;;;19.64;nan
24666;BME280;29726;53.532;-1.478;2023-06-04T01:06:36;101611.03;;;19.61;nan
24666;BME280;29726;53.532;-1.478;2023-06-04T01:12:07;101597.53;;;19.45;nan
24666;BME280;29726;53.532;-1.478;2023-06-04T01:14:51;101559.25;;;19.24;nan
24666;BME280;29726;53.532;-1.478;2023-06-04T01:17:39;101591.31;;;19.41;nan
24666;BME280;29726;53.532;-1.478;2023-06-04T01:20:41;101606.97;;;19.36;nan
24666;BME280;29726;53.532;-1.478;2023-06-04T01:23:51;101603.31;;;19.30;nan
24666;BME280;29726;53.532;-1.478;2023-06-04T01:26:42;101601.19;;;19.25;nan
24666;BME280;29726;53.532;-1.478;2023-06-04T01:29:26;101601.44;;;19.22;nan
24666;BME280;29726;53.532;-1.478;2023-06-04T01:32:14;101599.34;;;19.17;nan
24666;BME280;29726;53.532;-1.478;2023-06-04T01:34:58;101589.19;;;19.10;nan
24666;BME280;29726;53.532;-1.478;2023-06-04T01:37:43;101586.53;;;19.01;nan
24666;BME280;29726;53.532;-1.478;2023-06-04T01:40:27;101594.47;;;18.97;nan
24666;BME280;29726;53.532;-1.478;2023-06-04T01:43:12;101605.28;;;18.99;nan
24666;BME280;29726;53.532;-1.478;2023-06-04T01:45:56;101582.75;;;18.84;nan
24666;BME280;29726;53.532;-1.478;2023-06-04T01:59:36;101591.06;;;18.68;nan
24666;BME280;29726;53.532;-1.478;2023-06-04T02:07:51;101594.25;;;18.55;nan
24666;BME280;29726;53.532;-1.478;2023-06-04T02:13:19;101589.25;;;18.45;nan
24666;BME280;29726;53.532;-1.478;2023-06-04T02:16:03;101604.09;;;18.40;nan
24666;BME280;29726;53.532;-1.478;2023-06-04T02:18:47;101607.41;;;18.39;nan
24666;BME280;29726;53.532;-1.478;2023-06-04T02:21:31;101610.16;;;18.33;nan
24666;BME280;29726;53.532;-1.478;2023-06-04T02:26:59;101605.13;;;18.23;nan
24666;BME280;29726;53.532;-1.478;2023-06-04T02:29:43;101610.97;;;18.19;nan
24666;BME280;29726;53.532;-1.478;2023-06-04T02:32:27;101597.97;;;18.07;nan
24666;BME280;29726;53.532;-1.478;2023-06-04T02:37:56;101606.72;;;18.09;nan
24666;BME280;29726;53.532;-1.478;2023-06-04T02:43:26;101606.34;;;18.02;nan
24666;BME280;29726;53.532;-1.478;2023-06-04T02:46:10;101612.72;;;17.97;nan
24666;BME280;29726;53.532;-1.478;2023-06-04T02:48:54;101586.16;;;17.74;nan
24666;BME280;29726;53.532;-1.478;2023-06-04T02:51:38;101603.28;;;17.85;nan
24666;BME280;29726;53.532;-1.478;2023-06-04T02:54:22;101609.50;;;17.89;nan
24666;BME280;29726;53.532;-1.478;2023-06-04T02:59:50;101609.72;;;17.86;nan
24666;BME280;29726;53.532;-1.478;2023-06-04T03:05:19;101602.34;;;17.74;nan
24666;BME280;29726;53.532;-1.478;2023-06-04T03:10:48;101612.84;;;17.73;nan
24666;BME280;29726;53.532;-1.478;2023-06-04T03:13:32;101591.47;;;17.67;nan
24666;BME280;29726;53.532;-1.478;2023-06-04T03:16:16;101606.84;;;17.66;nan
24666;BME280;29726;53.532;-1.478;2023-06-04T03:19:00;101606.06;;;17.65;nan
24666;BME280;29726;53.532;-1.478;2023-06-04T03:21:44;101611.13;;;17.61;nan
24666;BME280;29726;53.532;-1.478;2023-06-04T03:24:28;101586.41;;;17.56;nan
24666;BME280;29726;53.532;-1.478;2023-06-04T03:27:13;101604.13;;;17.57;nan
24666;BME280;29726;53.532;-1.478;2023-06-04T03:32:41;101606.84;;;17.51;nan
24666;BME280;29726;53.532;-1.478;2023-06-04T03:35:27;101600.16;;;17.49;nan
24666;BME280;29726;53.532;-1.478;2023-06-04T03:38:11;101592.84;;;17.42;nan
24666;BME280;29726;53.532;-1.478;2023-06-04T03:40:55;101598.50;;;17.42;nan
24666;BME280;29726;53.532;-1.478;2023-06-04T03:43:40;101595.38;;;17.40;nan
24666;BME280;29726;53.532;-1.478;2023-06-04T03:51:55;101579.19;;;17.26;nan
24666;BME280;29726;53.532;-1.478;2023-06-04T03:54:39;101590.47;;;17.26;nan
24666;BME280;29726;53.532;-1.478;2023-06-04T03:57:23;101598.47;;;17.28;nan
24666;BME280;29726;53.532;-1.478;2023-06-04T04:00:10;101589.72;;;17.26;nan
24666;BME280;29726;53.532;-1.478;2023-06-04T04:05:40;101592.25;;;17.09;nan
24666;BME280;29726;53.532;-1.478;2023-06-04T04:08:25;101579.72;;;17.10;nan
24666;BME280;29726;53.532;-1.478;2023-06-04T04:22:12;101586.22;;;17.02;nan
24666;BME280;29726;53.532;-1.478;2023-06-04T04:25:00;101582.53;;;16.96;nan
24666;BME280;29726;53.532;-1.478;2023-06-04T04:27:45;101588.16;;;16.96;nan
24666;BME280;29726;53.532;-1.478;2023-06-04T04:36:02;101604.31;;;16.95;nan
24666;BME280;29726;53.532;-1.478;2023-06-04T04:38:46;101608.94;;;16.84;nan
24666;BME280;29726;53.532;-1.478;2023-06-04T04:41:37;101608.38;;;16.94;nan
24666;BME280;29726;53.532;-1.478;2023-06-04T04:44:22;101606.81;;;16.93;nan
24666;BME280;29726;53.532;-1.478;2023-06-04T04:47:06;101591.06;;;16.87;nan
24666;BME280;29726;53.532;-1.478;2023-06-04T04:49:50;101606.25;;;16.89;nan
24666;BME280;29726;53.532;-1.478;2023-06-04T04:52:34;101611.88;;;16.89;nan
24666;BME280;29726;53.532;-1.478;2023-06-04T04:55:18;101599.53;;;16.87;nan
24666;BME280;29726;53.532;-1.478;2023-06-04T04:58:02;101606.44;;;16.86;nan
24666;BME280;29726;53.532;-1.478;2023-06-04T05:00:46;101603.91;;;16.88;nan
24666;BME280;29726;53.532;-1.478;2023-06-04T05:06:15;101618.50;;;16.86;nan
24666;BME280;29726;53.532;-1.478;2023-06-04T05:08:59;101610.34;;;16.88;nan
24666;BME280;29726;53.532;-1.478;2023-06-04T05:11:42;101607.88;;;16.81;nan
24666;BME280;29726;53.532;-1.478;2023-06-04T05:14:27;101595.53;;;16.79;nan
24666;BME280;29726;53.532;-1.478;2023-06-04T05:17:12;101610.50;;;16.85;nan
24666;BME280;29726;53.532;-1.478;2023-06-04T05:19:57;101608.78;;;16.87;nan
24666;BME280;29726;53.532;-1.478;2023-06-04T05:22:45;101611.00;;;16.83;nan
24666;BME280;29726;53.532;-1.478;2023-06-04T05:25:32;101611.31;;;16.85;nan
24666;BME280;29726;53.532;-1.478;2023-06-04T05:28:16;101618.50;;;16.86;nan
24666;BME280;29726;53.532;-1.478;2023-06-04T05:31:00;101620.06;;;16.87;nan
24666;BME280;29726;53.532;-1.478;2023-06-04T05:33:44;101615.84;;;16.83;nan
24666;BME280;29726;53.532;-1.478;2023-06-04T05:36:29;101622.38;;;16.89;nan
24666;BME280;29726;53.532;-1.478;2023-06-04T05:39:14;101616.94;;;16.85;nan
24666;BME280;29726;53.532;-1.478;2023-06-04T05:44:42;101619.09;;;16.90;nan
24666;BME280;29726;53.532;-1.478;2023-06-04T05:47:27;101619.09;;;16.90;nan
24666;BME280;29726;53.532;-1.478;2023-06-04T05:52:56;101621.41;;;16.92;nan
24666;BME280;29726;53.532;-1.478;2023-06-04T05:55:40;101623.16;;;16.89;nan
24666;BME280;29726;53.532;-1.478;2023-06-04T05:58:24;101626.88;;;16.95;nan
24666;BME280;29726;53.532;-1.478;2023-06-04T06:03:52;101632.50;;;16.95;nan
24666;BME280;29726;53.532;-1.478;2023-06-04T06:06:36;101635.91;;;16.99;nan
24666;BME280;29726;53.532;-1.478;2023-06-04T06:12:04;101622.03;;;16.96;nan
24666;BME280;29726;53.532;-1.478;2023-06-04T06:14:49;101632.13;;;17.02;nan
24666;BME280;29726;53.532;-1.478;2023-06-04T06:17:33;101627.28;;;17.03;nan
24666;BME280;29726;53.532;-1.478;2023-06-04T06:25:49;101639.72;;;17.11;nan
24666;BME280;29726;53.532;-1.478;2023-06-04T06:28:35;101602.75;;;16.94;nan
24666;BME280;29726;53.532;-1.478;2023-06-04T06:31:20;101628.25;;;17.14;nan
24666;BME280;29726;53.532;-1.478;2023-06-04T06:34:04;101631.38;;;17.16;nan
24666;BME280;29726;53.532;-1.478;2023-06-04T06:39:32;101620.84;;;17.17;nan
24666;BME280;29726;53.532;-1.478;2023-06-04T06:42:15;101622.78;;;17.25;nan
24666;BME280;29726;53.532;-1.478;2023-06-04T06:45:02;101617.66;;;17.24;nan
24666;BME280;29726;53.532;-1.478;2023-06-04T06:47:46;101620.59;;;17.29;nan
24666;BME280;29726;53.532;-1.478;2023-06-04T06:50:30;101629.66;;;17.33;nan
24666;BME280;29726;53.532;-1.478;2023-06-04T06:53:14;101625.34;;;17.38;nan
24666;BME280;29726;53.532;-1.478;2023-06-04T06:55:58;101590.59;;;17.17;nan
24666;BME280;29726;53.532;-1.478;2023-06-04T06:58:42;101613.59;;;17.39;nan
24666;BME280;29726;53.532;-1.478;2023-06-04T07:01:26;101621.09;;;17.42;nan
24666;BME280;29726;53.532;-1.478;2023-06-04T07:04:10;101626.72;;;17.42;nan
24666;BME280;29726;53.532;-1.478;2023-06-04T07:06:54;101616.22;;;17.43;nan
24666;BME280;29726;53.532;-1.478;2023-06-04T07:15:06;101619.72;;;17.52;nan
24666;BME280;29726;53.532;-1.478;2023-06-04T07:17:52;101653.63;;;17.52;nan
24666;BME280;29726;53.532;-1.478;2023-06-04T07:23:19;101644.03;;;17.64;nan
24666;BME280;29726;53.532;-1.478;2023-06-04T07:28:47;101630.78;;;17.70;nan
24666;BME280;29726;53.532;-1.478;2023-06-04T07:31:31;101637.22;;;17.71;nan
24666;BME280;29726;53.532;-1.478;2023-06-04T07:36:59;101639.94;;;17.80;nan
24666;BME280;29726;53.532;-1.478;2023-06-04T07:39:44;101642.28;;;17.81;nan
24666;BME280;29726;53.532;-1.478;2023-06-04T07:42:28;101645.38;;;17.83;nan
24666;BME280;29726;53.532;-1.478;2023-06-04T07:58:52;101624.31;;;17.99;nan
24666;BME280;29726;53.532;-1.478;2023-06-04T08:04:20;101635.41;;;18.02;nan
24666;BME280;29726;53.532;-1.478;2023-06-04T08:09:48;101629.34;;;18.09;nan
24666;BME280;29726;53.532;-1.478;2023-06-04T08:12:32;101635.00;;;18.09;nan
24666;BME280;29726;53.532;-1.478;2023-06-04T08:18:00;101633.03;;;18.15;nan
24666;BME280;29726;53.532;-1.478;2023-06-04T08:20:44;101626.38;;;18.18;nan
24666;BME280;29726;53.532;-1.478;2023-06-04T08:23:28;101637.47;;;18.22;nan
24666;BME280;29726;53.532;-1.478;2023-06-04T08:26:12;101642.94;;;18.25;nan
24666;BME280;29726;53.532;-1.478;2023-06-04T08:28:57;101636.00;;;18.26;nan
24666;BME280;29726;53.532;-1.478;2023-06-04T08:31:41;101640.19;;;18.31;nan
24666;BME280;29726;53.532;-1.478;2023-06-04T08:37:09;101641.56;;;18.35;nan
24666;BME280;29726;53.532;-1.478;2023-06-04T08:39:54;101643.09;;;18.36;nan
24666;BME280;29726;53.532;-1.478;2023-06-04T08:42:43;101634.16;;;18.38;nan
24666;BME280;29726;53.532;-1.478;2023-06-04T08:45:32;101633.16;;;18.41;nan
24666;BME280;29726;53.532;-1.478;2023-06-04T08:51:04;101638.59;;;18.44;nan
24666;BME280;29726;53.532;-1.478;2023-06-04T08:53:49;101646.94;;;18.53;nan
24666;BME280;29726;53.532;-1.478;2023-06-04T08:56:37;101621.22;;;18.51;nan
24666;BME280;29726;53.532;-1.478;2023-06-04T09:02:05;101641.75;;;18.71;nan
24666;BME280;29726;53.532;-1.478;2023-06-04T09:04:49;101653.44;;;18.79;nan
24666;BME280;29726;53.532;-1.478;2023-06-04T09:07:35;101646.56;;;18.85;nan
24666;BME280;29726;53.532;-1.478;2023-06-04T09:10:22;101643.03;;;18.90;nan
24666;BME280;29726;53.532;-1.478;2023-06-04T09:16:04;101647.53;;;19.02;nan
24666;BME280;29726;53.532;-1.478;2023-06-04T09:24:17;101646.97;;;19.18;nan
24666;BME280;29726;53.532;-1.478;2023-06-04T09:29:55;101651.19;;;19.28;nan
24666;BME280;29726;53.532;-1.478;2023-06-04T09:32:39;101650.19;;;19.31;nan
24666;BME280;29726;53.532;-1.478;2023-06-04T09:35:23;101651.50;;;19.36;nan
24666;BME280;29726;53.532;-1.478;2023-06-04T09:38:07;101650.28;;;19.42;nan
24666;BME280;29726;53.532;-1.478;2023-06-04T09:43:35;101638.75;;;19.46;nan
24666;BME280;29726;53.532;-1.478;2023-06-04T09:51:48;101644.06;;;19.64;nan
24666;BME280;29726;53.532;-1.478;2023-06-04T09:54:40;101641.25;;;19.69;nan
24666;BME280;29726;53.532;-1.478;2023-06-04T09:57:25;101660.38;;;19.74;nan
24666;BME280;29726;53.532;-1.478;2023-06-04T10:05:41;101647.34;;;19.88;nan
24666;BME280;29726;53.532;-1.478;2023-06-04T10:11:11;101635.19;;;19.87;nan
24666;BME280;29726;53.532;-1.478;2023-06-04T10:14:18;101615.31;;;19.82;nan
24666;BME280;29726;53.532;-1.478;2023-06-04T10:19:49;101642.38;;;20.14;nan
24666;BME280;29726;53.532;-1.478;2023-06-04T10:28:04;101654.63;;;20.36;nan
24666;BME280;29726;53.532;-1.478;2023-06-04T10:30:49;101650.81;;;20.44;nan
24666;BME280;29726;53.532;-1.478;2023-06-04T10:33:34;101644.91;;;20.48;nan
24666;BME280;29726;53.532;-1.478;2023-06-04T10:36:20;101647.50;;;20.57;nan
24666;BME280;29726;53.532;-1.478;2023-06-04T10:41:58;101654.81;;;20.69;nan
24666;BME280;29726;53.532;-1.478;2023-06-04T10:47:30;101650.97;;;20.77;nan
24666;BME280;29726;53.532;-1.478;2023-06-04T10:50:16;101651.03;;;20.88;nan
24666;BME280;29726;53.532;-1.478;2023-06-04T10:53:00;101624.13;;;20.78;nan
24666;BME280;29726;53.532;-1.478;2023-06-04T10:55:49;101757.97;;;21.02;nan
24666;BME280;29726;53.532;-1.478;2023-06-04T10:58:34;101658.81;;;21.04;nan
24666;BME280;29726;53.532;-1.478;2023-06-04T11:01:29;101639.22;;;21.17;nan
24666;BME280;29726;53.532;-1.478;2023-06-04T11:04:25;101648.53;;;21.29;nan
24666;BME280;29726;53.532;-1.478;2023-06-04T11:07:09;101658.13;;;21.37;nan
24666;BME280;29726;53.532;-1.478;2023-06-04T11:09:55;101654.50;;;21.42;nan
24666;BME280;29726;53.532;-1.478;2023-06-04T11:18:32;101647.78;;;21.56;nan
24666;BME280;29726;53.532;-1.478;2023-06-04T11:21:16;101657.91;;;21.68;nan
24666;BME280;29726;53.532;-1.478;2023-06-04T11:24:00;101625.31;;;21.52;nan
24666;BME280;29726;53.532;-1.478;2023-06-04T11:29:29;101663.06;;;21.80;nan
24666;BME280;29726;53.532;-1.478;2023-06-04T11:32:21;101641.88;;;21.81;nan
24666;BME280;29726;53.532;-1.478;2023-06-04T11:35:06;101658.16;;;21.92;nan
24666;BME280;29726;53.532;-1.478;2023-06-04T11:40:38;101667.72;;;22.05;nan
24666;BME280;29726;53.532;-1.478;2023-06-04T11:43:23;101658.38;;;22.10;nan
24666;BME280;29726;53.532;-1.478;2023-06-04T11:48:52;101657.34;;;22.24;nan
24666;BME280;29726;53.532;-1.478;2023-06-04T11:51:37;101664.03;;;22.32;nan
24666;BME280;29726;53.532;-1.478;2023-06-04T11:54:21;101666.09;;;22.37;nan
24666;BME280;29726;53.532;-1.478;2023-06-04T11:57:06;101655.25;;;22.41;nan
24666;BME280;29726;53.532;-1.478;2023-06-04T11:59:51;101654.72;;;22.48;nan
24666;BME280;29726;53.532;-1.478;2023-06-04T12:02:39;101662.47;;;22.53;nan
24666;BME280;29726;53.532;-1.478;2023-06-04T12:08:15;101649.50;;;22.63;nan
24666;BME280;29726;53.532;-1.478;2023-06-04T12:10:59;101645.84;;;22.68;nan
24666;BME280;29726;53.532;-1.478;2023-06-04T12:13:43;101646.34;;;22.72;nan
24666;BME280;29726;53.532;-1.478;2023-06-04T12:16:27;101659.78;;;22.77;nan
24666;BME280;29726;53.532;-1.478;2023-06-04T12:19:12;101658.47;;;22.83;nan
24666;BME280;29726;53.532;-1.478;2023-06-04T12:22:04;101650.41;;;22.87;nan
24666;BME280;29726;53.532;-1.478;2023-06-04T12:24:56;101645.44;;;22.93;nan
24666;BME280;29726;53.532;-1.478;2023-06-04T12:33:23;101652.09;;;23.12;nan
24666;BME280;29726;53.532;-1.478;2023-06-04T12:36:07;101655.44;;;23.22;nan
24666;BME280;29726;53.532;-1.478;2023-06-04T12:38:51;101645.56;;;23.23;nan
24666;BME280;29726;53.532;-1.478;2023-06-04T12:41:35;101655.38;;;23.33;nan
24666;BME280;29726;53.532;-1.478;2023-06-04T12:44:19;101662.03;;;23.41;nan
24666;BME280;29726;53.532;-1.478;2023-06-04T12:47:05;101657.41;;;23.38;nan
24666;BME280;29726;53.532;-1.478;2023-06-04T12:49:49;101649.00;;;23.51;nan
24666;BME280;29726;53.532;-1.478;2023-06-04T12:52:33;101642.50;;;23.56;nan
24666;BME280;29726;53.532;-1.478;2023-06-04T12:55:17;101650.47;;;23.63;nan
24666;BME280;29726;53.532;-1.478;2023-06-04T12:58:01;101641.88;;;23.68;nan
24666;BME280;29726;53.532;-1.478;2023-06-04T13:00:45;101615.78;;;23.59;nan
24666;BME280;29726;53.532;-1.478;2023-06-04T13:03:37;101647.97;;;23.83;nan
24666;BME280;29726;53.532;-1.478;2023-06-04T13:06:21;101637.34;;;23.83;nan
24666;BME280;29726;53.532;-1.478;2023-06-04T13:17:20;101628.59;;;24.05;nan
24666;BME280;29726;53.532;-1.478;2023-06-04T13:20:05;101641.47;;;24.12;nan
24666;BME280;29726;53.532;-1.478;2023-06-04T13:22:49;101638.28;;;24.21;nan
24666;BME280;29726;53.532;-1.478;2023-06-04T13:25:33;101637.19;;;24.24;nan
24666;BME280;29726;53.532;-1.478;2023-06-04T13:28:18;101638.47;;;24.28;nan
24666;BME280;29726;53.532;-1.478;2023-06-04T13:31:02;101637.38;;;24.31;nan
24666;BME280;29726;53.532;-1.478;2023-06-04T13:33:46;101633.22;;;24.32;nan
24666;BME280;29726;53.532;-1.478;2023-06-04T13:36:30;101631.53;;;24.42;nan
24666;BME280;29726;53.532;-1.478;2023-06-04T13:39:14;101611.88;;;24.39;nan
24666;BME280;29726;53.532;-1.478;2023-06-04T13:44:42;101630.38;;;24.56;nan
24666;BME280;29726;53.532;-1.478;2023-06-04T13:47:27;101612.16;;;24.59;nan
24666;BME280;29726;53.532;-1.478;2023-06-04T13:50:10;101621.88;;;24.69;nan
24666;BME280;29726;53.532;-1.478;2023-06-04T13:52:54;101614.63;;;24.68;nan
24666;BME280;29726;53.532;-1.478;2023-06-04T13:55:38;101595.34;;;24.74;nan
24666;BME280;29726;53.532;-1.478;2023-06-04T13:58:26;101613.41;;;24.82;nan
24666;BME280;29726;53.532;-1.478;2023-06-04T14:01:11;101596.56;;;24.79;nan
24666;BME280;29726;53.532;-1.478;2023-06-04T14:03:54;101595.63;;;24.89;nan
24666;BME280;29726;53.532;-1.478;2023-06-04T14:06:38;101603.84;;;24.98;nan
24666;BME280;29726;53.532;-1.478;2023-06-04T14:09:22;101582.81;;;24.96;nan
24666;BME280;29726;53.532;-1.478;2023-06-04T14:14:51;101607.97;;;25.16;nan
24666;BME280;29726;53.532;-1.478;2023-06-04T14:17:35;101568.44;;;25.01;nan
24666;BME280;29726;53.532;-1.478;2023-06-04T14:23:03;101608.53;;;25.33;nan
24666;BME280;29726;53.532;-1.478;2023-06-04T14:25:47;101599.19;;;25.32;nan
24666;BME280;29726;53.532;-1.478;2023-06-04T14:28:31;101595.94;;;25.41;nan
24666;BME280;29726;53.532;-1.478;2023-06-04T14:31:15;101594.34;;;25.40;nan
24666;BME280;29726;53.532;-1.478;2023-06-04T14:33:59;101608.72;;;25.53;nan
24666;BME280;29726;53.532;-1.478;2023-06-04T14:36:43;101608.41;;;25.57;nan
24666;BME280;29726;53.532;-1.478;2023-06-04T14:39:27;101616.66;;;25.60;nan
24666;BME280;29726;53.532;-1.478;2023-06-04T14:42:11;101613.16;;;25.67;nan
24666;BME280;29726;53.532;-1.478;2023-06-04T14:44:55;101605.56;;;25.69;nan
24666;BME280;29726;53.532;-1.478;2023-06-04T14:47:39;101606.34;;;25.70;nan
24666;BME280;29726;53.532;-1.478;2023-06-04T14:50:23;101592.69;;;25.76;nan
24666;BME280;29726;53.532;-1.478;2023-06-04T14:53:08;101610.03;;;25.83;nan
24666;BME280;29726;53.532;-1.478;2023-06-04T14:55:52;101608.94;;;25.86;nan
24666;BME280;29726;53.532;-1.478;2023-06-04T15:01:21;101618.19;;;25.92;nan
24666;BME280;29726;53.532;-1.478;2023-06-04T15:04:07;101612.59;;;26.00;nan
24666;BME280;29726;53.532;-1.478;2023-06-04T15:06:51;101599.59;;;25.99;nan
24666;BME280;29726;53.532;-1.478;2023-06-04T15:09:35;101578.47;;;25.89;nan
24666;BME280;29726;53.532;-1.478;2023-06-04T15:12:20;101595.84;;;26.04;nan
24666;BME280;29726;53.532;-1.478;2023-06-04T15:15:05;101613.59;;;26.15;nan
24666;BME280;29726;53.532;-1.478;2023-06-04T15:17:49;101609.09;;;26.20;nan
24666;BME280;29726;53.532;-1.478;2023-06-04T15:20:34;101599.94;;;26.21;nan
24666;BME280;29726;53.532;-1.478;2023-06-04T15:23:18;101599.59;;;26.25;nan
24666;BME280;29726;53.532;-1.478;2023-06-04T15:26:02;101600.84;;;26.29;nan
24666;BME280;29726;53.532;-1.478;2023-06-04T15:34:14;101597.28;;;26.36;nan
24666;BME280;29726;53.532;-1.478;2023-06-04T15:36:58;101596.41;;;26.41;nan
24666;BME280;29726;53.532;-1.478;2023-06-04T15:39:42;101596.84;;;26.45;nan
24666;BME280;29726;53.532;-1.478;2023-06-04T15:42:26;101591.59;;;26.49;nan
24666;BME280;29726;53.532;-1.478;2023-06-04T15:47:54;101599.63;;;26.51;nan
24666;BME280;29726;53.532;-1.478;2023-06-04T15:50:38;101598.41;;;26.59;nan
24666;BME280;29726;53.532;-1.478;2023-06-04T15:53:22;101625.41;;;26.64;nan
24666;BME280;29726;53.532;-1.478;2023-06-04T15:56:06;101601.38;;;26.67;nan
24666;BME280;29726;53.532;-1.478;2023-06-04T15:58:50;101579.56;;;26.64;nan
24666;BME280;29726;53.532;-1.478;2023-06-04T16:01:34;101574.25;;;26.68;nan
24666;BME280;29726;53.532;-1.478;2023-06-04T16:04:18;101591.56;;;26.75;nan
24666;BME280;29726;53.532;-1.478;2023-06-04T16:12:30;101550.91;;;26.64;nan
24666;BME280;29726;53.532;-1.478;2023-06-04T16:17:58;101581.38;;;26.87;nan
24666;BME280;29726;53.532;-1.478;2023-06-04T16:23:26;101579.50;;;26.90;nan
24666;BME280;29726;53.532;-1.478;2023-06-04T16:26:09;101568.03;;;26.90;nan
24666;BME280;29726;53.532;-1.478;2023-06-04T16:28:53;101568.03;;;26.90;nan
24666;BME280;29726;53.532;-1.478;2023-06-04T16:31:37;101578.81;;;26.97;nan
24666;BME280;29726;53.532;-1.478;2023-06-04T16:34:21;101586.06;;;26.98;nan
24666;BME280;29726;53.532;-1.478;2023-06-04T16:37:05;101593.34;;;26.99;nan
24666;BME280;29726;53.532;-1.478;2023-06-04T16:39:49;101588.41;;;26.99;nan
24666;BME280;29726;53.532;-1.478;2023-06-04T16:42:33;101577.69;;;27.00;nan
24666;BME280;29726;53.532;-1.478;2023-06-04T16:45:18;101582.88;;;27.01;nan
24666;BME280;29726;53.532;-1.478;2023-06-04T16:48:02;101574.28;;;27.01;nan
24666;BME280;29726;53.532;-1.478;2023-06-04T16:50:48;101582.66;;;26.99;nan
24666;BME280;29726;53.532;-1.478;2023-06-04T16:53:32;101573.06;;;26.97;nan
24666;BME280;29726;53.532;-1.478;2023-06-04T16:56:16;101581.13;;;26.98;nan
24666;BME280;29726;53.532;-1.478;2023-06-04T17:01:44;101555.72;;;26.82;nan
24666;BME280;29726;53.532;-1.478;2023-06-04T17:04:29;101570.19;;;26.97;nan
24666;BME280;29726;53.532;-1.478;2023-06-04T17:07:12;101574.41;;;26.96;nan
24666;BME280;29726;53.532;-1.478;2023-06-04T17:09:57;101577.25;;;26.96;nan
24666;BME280;29726;53.532;-1.478;2023-06-04T17:12:40;101570.31;;;26.91;nan
24666;BME280;29726;53.532;-1.478;2023-06-04T17:18:09;101582.56;;;26.92;nan
24666;BME280;29726;53.532;-1.478;2023-06-04T17:20:56;101575.09;;;26.89;nan
24666;BME280;29726;53.532;-1.478;2023-06-04T17:23:40;101569.16;;;26.87;nan
24666;BME280;29726;53.532;-1.478;2023-06-04T17:26:24;101572.56;;;26.85;nan
24666;BME280;29726;53.532;-1.478;2023-06-04T17:29:10;101578.28;;;26.85;nan
24666;BME280;29726;53.532;-1.478;2023-06-04T17:31:54;101563.84;;;26.78;nan
24666;BME280;29726;53.532;-1.478;2023-06-04T17:34:38;101577.66;;;26.79;nan
24666;BME280;29726;53.532;-1.478;2023-06-04T17:40:08;101564.75;;;26.73;nan
24666;BME280;29726;53.532;-1.478;2023-06-04T17:42:52;101544.28;;;26.56;nan
24666;BME280;29726;53.532;-1.478;2023-06-04T17:45:36;101562.00;;;26.67;nan
24666;BME280;29726;53.532;-1.478;2023-06-04T17:48:20;101567.53;;;26.65;nan
24666;BME280;29726;53.532;-1.478;2023-06-04T17:51:04;101569.75;;;26.59;nan
24666;BME280;29726;53.532;-1.478;2023-06-04T17:56:32;101571.41;;;26.55;nan
24666;BME280;29726;53.532;-1.478;2023-06-04T17:59:17;101562.94;;;26.49;nan
24666;BME280;29726;53.532;-1.478;2023-06-04T18:02:01;101554.13;;;26.47;nan
24666;BME280;29726;53.532;-1.478;2023-06-04T18:04:44;101595.28;;;26.44;nan
24666;BME280;29726;53.532;-1.478;2023-06-04T18:07:31;101562.38;;;26.38;nan
24666;BME280;29726;53.532;-1.478;2023-06-04T18:10:15;101573.06;;;26.37;nan
24666;BME280;29726;53.532;-1.478;2023-06-04T18:12:59;101569.22;;;26.35;nan
24666;BME280;29726;53.532;-1.478;2023-06-04T18:15:43;101570.66;;;26.28;nan
24666;BME280;29726;53.532;-1.478;2023-06-04T18:18:28;101572.72;;;26.28;nan
24666;BME280;29726;53.532;-1.478;2023-06-04T18:21:12;101581.66;;;26.24;nan
24666;BME280;29726;53.532;-1.478;2023-06-04T18:23:56;101567.78;;;26.15;nan
24666;BME280;29726;53.532;-1.478;2023-06-04T18:26:40;101574.28;;;26.16;nan
24666;BME280;29726;53.532;-1.478;2023-06-04T18:29:24;101580.00;;;26.16;nan
24666;BME280;29726;53.532;-1.478;2023-06-04T18:32:09;101586.84;;;26.13;nan
24666;BME280;29726;53.532;-1.478;2023-06-04T18:34:52;101581.00;;;26.05;nan
24666;BME280;29726;53.532;-1.478;2023-06-04T18:37:37;101583.09;;;26.05;nan
24666;BME280;29726;53.532;-1.478;2023-06-04T18:40:20;101582.41;;;25.99;nan
24666;BME280;29726;53.532;-1.478;2023-06-04T18:43:04;101591.53;;;25.97;nan